BDL weather

Bradley International Airport
Hartford, Connecticut, United States

Public forecast

Using degrees Fahrenheit for public forecast. Weather courtesy of forecast.io.

METAR (pilot weather report)

Retrieved 2017/12/16 02:07 UTC (44 seconds ago):

KBDL 160207Z 22003KT 5SM -SN BR OVC041 M06/M07 A2986

TAF (pilot weather forecast)

Forecast is more than 12 hours old.

Retrieved 2017/12/15 00:33 UTC (1 day ago):

TAF KBDL 152331Z 1600/1706 VRB03KT 2SM -SN OVC025 FM160300 VRB03KT P6SM BKN040 FM161800 27012G21KT P6SM SCT200 FM162100 29010KT P6SM SCT200 FM170100 30006KT P6SM SKC